createdAt,value
2022-09-07T00:03:39.054Z,0.80
2022-09-07T00:07:24.028Z,0.90
2022-09-07T00:11:24.071Z,1.05
2022-09-07T00:15:08.331Z,1.15
2022-09-07T00:19:02.059Z,1.00
2022-09-07T00:22:48.008Z,1.00
2022-09-07T00:26:40.110Z,1.08
2022-09-07T00:30:26.017Z,1.10
2022-09-07T00:34:25.022Z,0.85
2022-09-07T00:38:17.029Z,0.90
2022-09-07T00:42:02.030Z,1.00
2022-09-07T00:46:01.026Z,0.85
2022-09-07T00:49:58.017Z,0.80
2022-09-07T00:54:00.092Z,1.40
2022-09-07T00:57:56.122Z,1.23
2022-09-07T01:01:35.333Z,0.80
2022-09-07T01:05:55.048Z,3.92
2022-09-07T01:09:35.156Z,0.88
2022-09-07T01:13:27.047Z,1.02
2022-09-07T01:17:31.051Z,1.17
2022-09-07T01:21:55.078Z,0.97
2022-09-07T01:25:55.521Z,1.00
2022-09-07T01:29:53.058Z,1.13
2022-09-07T01:33:58.017Z,1.25
2022-09-07T01:38:00.154Z,0.93
2022-09-07T01:42:15.052Z,0.73
2022-09-07T01:45:56.007Z,0.80
2022-09-07T01:50:10.165Z,0.98
2022-09-07T01:54:06.060Z,1.23
2022-09-07T01:57:51.119Z,0.80
2022-09-07T02:01:48.104Z,1.20
2022-09-07T02:05:40.043Z,0.90
2022-09-07T02:09:42.289Z,1.40
2022-09-07T02:13:42.057Z,1.00
2022-09-07T02:17:51.097Z,0.87
2022-09-07T02:21:50.120Z,0.90
2022-09-07T02:25:51.086Z,1.10
2022-09-07T02:29:36.097Z,1.02
2022-09-07T02:33:21.174Z,0.90
2022-09-07T02:37:09.061Z,0.90
2022-09-07T02:41:09.099Z,1.07
2022-09-07T02:44:55.082Z,1.20
2022-09-07T02:49:15.194Z,0.55
2022-09-07T02:53:21.102Z,0.70
2022-09-07T02:57:31.135Z,0.83
2022-09-07T03:01:43.568Z,1.00
2022-09-07T03:05:47.100Z,0.90
2022-09-07T03:09:30.462Z,1.08
2022-09-07T03:13:22.080Z,1.08
2022-09-07T03:17:08.092Z,0.93
2022-09-07T03:21:00.136Z,0.97
2022-09-07T03:24:38.427Z,1.00
2022-09-07T03:28:30.188Z,0.80
2022-09-07T03:32:15.160Z,0.90
2022-09-07T03:36:13.103Z,1.07
2022-09-07T03:39:51.613Z,1.20
2022-09-07T03:43:44.090Z,0.88
2022-09-07T03:47:29.137Z,0.93
2022-09-07T03:51:24.096Z,1.10
2022-09-07T03:55:02.436Z,1.30
2022-09-07T03:58:54.138Z,1.43
2022-09-07T04:02:46.236Z,1.13
2022-09-07T04:06:32.117Z,1.20
2022-09-07T04:11:07.144Z,1.10
2022-09-07T04:14:59.143Z,1.00
2022-09-07T04:18:44.215Z,1.03
2022-09-07T04:22:36.148Z,1.35
2022-09-07T04:26:28.144Z,1.42
2022-09-07T04:30:20.139Z,1.30
2022-09-07T04:34:07.127Z,0.90
2022-09-07T04:37:59.109Z,0.97
2022-09-07T04:41:46.123Z,1.33
2022-09-07T04:45:38.236Z,0.90
2022-09-07T04:49:18.649Z,1.10
2022-09-07T04:53:10.134Z,1.10
2022-09-07T04:56:55.133Z,1.40
2022-09-07T05:00:47.293Z,0.90
2022-09-07T05:04:39.153Z,1.83
2022-09-07T05:08:24.205Z,2.97
2022-09-07T05:12:16.154Z,1.40
2022-09-07T05:16:01.169Z,1.73
2022-09-07T05:19:46.254Z,1.70
2022-09-07T05:23:31.139Z,1.10
2022-09-07T05:27:23.149Z,1.13
2022-09-07T05:31:17.580Z,1.30
2022-09-07T05:35:10.177Z,0.87
2022-09-07T05:39:04.153Z,1.08
2022-09-07T05:42:49.152Z,1.23
2022-09-07T05:46:48.172Z,1.73
2022-09-07T05:50:40.215Z,1.50
2022-09-07T05:54:18.216Z,1.20
2022-09-07T05:58:10.190Z,1.40
2022-09-07T06:01:48.259Z,1.55
2022-09-07T06:05:33.171Z,1.70
2022-09-07T06:09:19.211Z,1.53
2022-09-07T06:13:05.226Z,1.30
2022-09-07T06:17:04.201Z,1.58
2022-09-07T06:21:03.176Z,1.40
2022-09-07T06:25:02.189Z,1.42
2022-09-07T06:28:57.942Z,1.50
2022-09-07T06:32:43.561Z,1.93
2022-09-07T06:36:36.182Z,2.00
2022-09-07T06:40:21.251Z,1.50
2022-09-07T06:44:06.232Z,2.13
2022-09-07T06:47:58.287Z,1.67
2022-09-07T06:51:43.181Z,1.27
2022-09-07T06:55:28.399Z,1.40
2022-09-07T06:59:13.169Z,1.30
2022-09-07T07:03:05.203Z,1.58
2022-09-07T07:07:04.188Z,1.70
2022-09-07T07:10:57.198Z,1.80
2022-09-07T07:14:37.343Z,1.60
2022-09-07T07:18:30.218Z,1.60
2022-09-07T07:22:23.911Z,1.58
2022-09-07T07:26:23.204Z,1.73
2022-09-07T07:30:08.198Z,1.60
2022-09-07T07:34:00.339Z,2.00
2022-09-07T07:37:46.159Z,1.83
2022-09-07T07:41:53.858Z,1.90
2022-09-07T07:49:37.177Z,1.47
2022-09-07T07:53:44.400Z,1.80
2022-09-07T07:57:29.251Z,1.77
2022-09-07T08:01:17.211Z,1.88
2022-09-07T08:05:09.182Z,1.60
2022-09-07T08:08:54.194Z,1.90
2022-09-07T08:12:40.131Z,1.80
2022-09-07T08:16:25.264Z,1.90
2022-09-07T08:20:17.210Z,2.53
2022-09-07T08:23:56.170Z,2.00
2022-09-07T08:27:49.199Z,2.17
2022-09-07T08:31:34.224Z,1.90
2022-09-07T08:35:26.236Z,1.65
2022-09-07T08:39:04.566Z,1.90
2022-09-07T08:43:17.220Z,1.80
2022-09-07T08:47:02.315Z,1.50
2022-09-07T08:51:05.233Z,1.85
2022-09-07T08:54:56.302Z,1.55
2022-09-07T08:59:00.364Z,1.98
2022-09-07T09:02:45.986Z,1.30
2022-09-07T09:07:16.235Z,2.17
2022-09-07T09:11:51.231Z,2.22
2022-09-07T09:16:20.352Z,1.80
2022-09-07T09:20:27.211Z,1.63
2022-09-07T09:24:28.219Z,1.67
2022-09-07T09:28:18.240Z,1.67
2022-09-07T09:32:10.241Z,1.60
2022-09-07T09:35:51.197Z,1.88
2022-09-07T09:39:53.993Z,1.65
2022-09-07T09:43:52.252Z,1.43
2022-09-07T09:47:47.331Z,1.60
2022-09-07T09:55:48.231Z,1.58
2022-09-07T09:59:58.933Z,2.30
2022-09-07T10:03:56.502Z,2.33
2022-09-07T10:08:05.250Z,1.80
2022-09-07T10:12:05.699Z,2.22
2022-09-07T10:15:51.273Z,1.50
2022-09-07T10:19:53.259Z,1.83
2022-09-07T10:23:38.767Z,1.80
2022-09-07T10:27:49.247Z,1.60
2022-09-07T10:31:38.321Z,1.50
2022-09-07T10:35:45.298Z,1.83
2022-09-07T10:39:28.268Z,1.70
2022-09-07T10:43:30.310Z,1.47
2022-09-07T10:47:16.854Z,1.97
2022-09-07T10:51:14.336Z,1.50
2022-09-07T10:55:16.279Z,1.38
2022-09-07T10:59:18.336Z,1.75
2022-09-07T11:03:32.373Z,2.00
2022-09-07T11:07:58.337Z,2.00
2022-09-07T11:12:18.704Z,1.83
2022-09-07T11:16:50.438Z,2.00
2022-09-07T11:20:18.286Z,2.15
2022-09-07T11:24:19.321Z,1.80
2022-09-07T11:28:20.522Z,1.80
2022-09-07T11:32:21.300Z,1.52
2022-09-07T11:36:18.433Z,1.63
2022-09-07T11:40:31.369Z,1.75
2022-09-07T11:44:35.328Z,2.03
2022-09-07T11:48:31.345Z,2.53
2022-09-07T11:52:45.376Z,2.13
2022-09-07T11:56:51.328Z,2.08
2022-09-07T12:01:28.327Z,2.17
2022-09-07T12:05:45.335Z,2.40
2022-09-07T12:09:43.341Z,2.10
2022-09-07T12:13:51.360Z,1.60
2022-09-07T12:18:05.339Z,2.00
2022-09-07T12:22:01.422Z,2.33
2022-09-07T12:25:55.373Z,1.73
2022-09-07T12:29:46.288Z,2.30
2022-09-07T12:33:46.368Z,2.53
2022-09-07T12:37:33.437Z,1.95
2022-09-07T12:41:31.348Z,2.00
2022-09-07T12:45:52.408Z,1.80
2022-09-07T12:50:05.360Z,1.57
2022-09-07T12:54:02.412Z,1.75
2022-09-07T12:58:00.358Z,1.70
2022-09-07T13:01:55.416Z,1.83
2022-09-07T13:06:05.455Z,1.67
2022-09-07T13:10:10.362Z,2.00
2022-09-07T13:14:21.381Z,1.92
2022-09-07T13:18:06.428Z,1.92
2022-09-07T13:21:58.378Z,2.72
2022-09-07T13:25:43.398Z,1.60
2022-09-07T13:29:53.433Z,2.20
2022-09-07T13:33:31.712Z,2.10
2022-09-07T13:37:29.370Z,2.00
2022-09-07T13:41:28.391Z,1.75
2022-09-07T13:45:31.416Z,2.47
2022-09-07T13:49:37.377Z,2.03
2022-09-07T13:53:32.485Z,2.22
2022-09-07T13:57:35.389Z,2.38
2022-09-07T14:01:40.446Z,1.85
2022-09-07T14:05:27.490Z,2.33
2022-09-07T14:09:23.422Z,2.00
2022-09-07T14:13:15.421Z,1.70
2022-09-07T14:17:06.415Z,1.88
2022-09-07T14:21:01.412Z,1.92
2022-09-07T14:24:43.904Z,2.23
2022-09-07T14:28:44.444Z,1.80
2022-09-07T14:32:31.428Z,1.30
2022-09-07T14:36:41.844Z,1.88
2022-09-07T14:40:44.423Z,1.70
2022-09-07T14:44:36.453Z,1.73
2022-09-07T14:48:32.415Z,2.40
2022-09-07T14:53:32.938Z,1.88
2022-09-07T14:57:39.484Z,2.20
2022-09-07T15:01:39.606Z,2.15
2022-09-07T15:05:29.501Z,1.90
2022-09-07T15:09:56.484Z,2.00
2022-09-07T15:13:47.433Z,2.03
2022-09-07T15:17:48.299Z,2.30
2022-09-07T15:21:47.495Z,1.95
2022-09-07T15:25:32.484Z,1.60
2022-09-07T15:29:29.361Z,2.43
2022-09-07T15:33:09.026Z,1.52
2022-09-07T15:38:00.968Z,1.30
2022-09-07T15:41:23.564Z,1.70
2022-09-07T15:45:16.447Z,1.87
2022-09-07T15:48:55.618Z,1.40
2022-09-07T15:52:47.455Z,1.30
2022-09-07T15:56:39.776Z,1.40
2022-09-07T16:00:25.455Z,1.83
2022-09-07T16:04:27.567Z,1.70
2022-09-07T16:08:32.360Z,1.93
2022-09-07T16:20:32.089Z,2.30
2022-09-07T16:24:23.473Z,1.43
2022-09-07T16:28:16.504Z,1.57
2022-09-07T16:36:09.394Z,1.30
2022-09-07T16:39:54.515Z,1.33
2022-09-07T16:43:46.477Z,1.33
2022-09-07T16:47:31.535Z,1.40
2022-09-07T16:51:20.519Z,1.00
2022-09-07T16:55:05.506Z,0.95
2022-09-07T16:59:00.482Z,0.88
2022-09-07T17:02:45.539Z,1.63
2022-09-07T17:06:32.608Z,1.00
2022-09-07T17:10:17.501Z,1.13
2022-09-07T17:14:11.539Z,1.42
2022-09-07T17:17:56.607Z,1.25
2022-09-07T17:21:44.395Z,1.03
2022-09-07T17:25:33.296Z,1.10
2022-09-07T17:29:25.523Z,1.33
2022-09-07T17:33:10.608Z,0.77
2022-09-07T17:36:55.740Z,0.90
2022-09-07T17:40:40.553Z,0.90
2022-09-07T17:44:37.827Z,0.60
2022-09-07T17:48:29.543Z,1.05
2022-09-07T17:52:07.604Z,1.38
2022-09-07T17:55:59.547Z,0.95
2022-09-07T18:03:56.548Z,0.80
2022-09-07T18:07:35.338Z,0.85
2022-09-07T18:15:32.600Z,0.85
2022-09-07T18:19:25.614Z,1.40
2022-09-07T18:23:03.716Z,0.90
2022-09-07T18:26:56.567Z,0.90
2022-09-07T18:30:41.568Z,0.90
2022-09-07T18:34:41.257Z,0.73
2022-09-07T18:38:35.572Z,1.10
2022-09-07T18:42:22.325Z,1.03
2022-09-07T18:46:10.741Z,1.00
2022-09-07T18:50:02.655Z,1.10
2022-09-07T18:53:47.590Z,1.13
2022-09-07T18:57:32.855Z,1.07
2022-09-07T19:01:22.039Z,1.20
2022-09-07T19:09:19.564Z,0.90
2022-09-07T19:13:04.694Z,0.70
2022-09-07T19:16:51.571Z,0.90
2022-09-07T19:20:43.587Z,0.90
2022-09-07T19:24:21.939Z,0.90
2022-09-07T19:28:13.578Z,1.00
2022-09-07T19:32:11.725Z,0.88
2022-09-07T19:36:03.582Z,1.10
2022-09-07T19:39:48.666Z,0.90
2022-09-07T19:43:38.724Z,1.10
2022-09-07T19:47:23.593Z,1.00
2022-09-07T19:51:20.675Z,0.90
2022-09-07T19:55:02.089Z,1.10
2022-09-07T19:58:56.644Z,1.00
2022-09-07T20:02:41.608Z,1.27
2022-09-07T20:06:33.599Z,1.02
2022-09-07T20:10:18.933Z,1.13
2022-09-07T20:14:10.584Z,1.30
2022-09-07T20:17:55.613Z,1.10
2022-09-07T20:21:47.964Z,1.30
2022-09-07T20:25:32.607Z,1.60
2022-09-07T20:35:14.485Z,1.10
2022-09-07T20:38:58.620Z,1.47
2022-09-07T20:42:57.707Z,1.25
2022-09-07T20:46:42.683Z,1.20
2022-09-07T20:50:34.622Z,1.42
2022-09-07T20:54:19.623Z,1.30
2022-09-07T20:58:11.646Z,1.03
2022-09-07T21:01:56.677Z,1.48
2022-09-07T21:05:49.656Z,1.40
2022-09-07T21:09:27.985Z,1.38
2022-09-07T21:13:19.623Z,1.63
2022-09-07T21:17:04.654Z,1.10
2022-09-07T21:21:17.309Z,1.10
2022-09-07T21:24:55.650Z,1.20
2022-09-07T21:28:40.787Z,1.25
2022-09-07T21:32:25.673Z,1.30
2022-09-07T21:36:15.731Z,1.30
2022-09-07T21:40:09.725Z,1.25
2022-09-07T21:43:55.970Z,1.50
2022-09-07T21:47:47.656Z,1.35
2022-09-07T21:51:25.807Z,1.23
2022-09-07T21:55:17.729Z,1.57
2022-09-07T21:59:01.269Z,1.40
2022-09-07T22:02:52.654Z,1.50
2022-09-07T22:06:32.456Z,1.40
2022-09-07T22:10:24.916Z,1.33
2022-09-07T22:14:15.687Z,1.37
2022-09-07T22:18:14.700Z,1.60
2022-09-07T22:22:06.680Z,1.85
2022-09-07T22:25:51.727Z,1.38
2022-09-07T22:29:43.692Z,1.40
2022-09-07T22:33:21.860Z,1.43
2022-09-07T22:37:13.685Z,1.48
2022-09-07T22:40:58.678Z,1.63
2022-09-07T22:44:50.711Z,1.67
2022-09-07T22:48:35.690Z,1.40
2022-09-07T22:52:27.685Z,1.70
2022-09-07T22:56:07.156Z,1.60
2022-09-07T22:59:58.758Z,1.70
2022-09-07T23:03:45.793Z,1.67
2022-09-07T23:07:44.705Z,1.30
2022-09-07T23:11:36.693Z,1.50
2022-09-07T23:15:22.778Z,1.40
2022-09-07T23:19:15.693Z,1.73
2022-09-07T23:23:01.711Z,1.27
2022-09-07T23:27:00.694Z,1.53
2022-09-07T23:30:57.827Z,1.67
2022-09-07T23:34:42.737Z,1.42
2022-09-07T23:38:34.711Z,1.63
2022-09-07T23:42:26.762Z,1.70
2022-09-07T23:46:05.028Z,1.60
2022-09-07T23:49:56.740Z,1.33
2022-09-07T23:53:35.075Z,1.67
2022-09-07T23:57:26.771Z,1.80
